Time;durP1;ratioP1;P1;durP2;ratioP2;P2;SDS_P1;SDS_P2;PMS_P1;PMS_P2;Temp;Humidity;BMP_temperature;BMP_pressure;BME280_temperature;BME280_humidity;BME280_pressure;Samples;Min_cycle;Max_cycle;Signal;HPM_P1;HPM_P2
2022/05/02 00:01:47;;;;;;;4.83;4.33;;;10.70;99.90;;;;;;5056401;28;20744;-71
2022/05/02 00:04:36;;;;;;;6.80;4.73;;;10.80;99.90;;;;;;5054656;28;20483;-71
2022/05/02 00:07:24;;;;;;;5.00;4.60;;;10.70;99.90;;;;;;5056714;28;20496;-71
2022/05/02 00:10:14;;;;;;;5.27;4.77;;;10.60;99.90;;;;;;5056996;28;21063;-71
2022/05/02 00:13:03;;;;;;;4.87;4.47;;;10.60;99.90;;;;;;5055843;28;20446;-69
2022/05/02 00:15:51;;;;;;;5.03;4.53;;;10.60;99.90;;;;;;5055692;28;20538;-71
2022/05/02 00:18:39;;;;;;;5.03;4.53;;;10.60;99.90;;;;;;5058151;28;20475;-71
2022/05/02 00:21:28;;;;;;;5.70;4.97;;;10.60;99.90;;;;;;5057170;28;20551;-70
2022/05/02 00:24:16;;;;;;;4.77;4.37;;;10.60;99.90;;;;;;5057763;28;20481;-69
2022/05/02 00:27:07;;;;;;;4.80;4.40;;;10.60;99.90;;;;;;5055698;28;20478;-71
2022/05/02 00:29:55;;;;;;;4.70;4.30;;;10.50;99.90;;;;;;5057008;28;20565;-70
2022/05/02 00:32:44;;;;;;;4.77;4.23;;;10.50;99.90;;;;;;5056677;28;20446;-71
2022/05/02 00:35:33;;;;;;;5.00;4.50;;;10.40;99.90;;;;;;5051868;28;20966;-71
2022/05/02 00:38:21;;;;;;;4.80;4.40;;;10.40;99.90;;;;;;5063871;28;20523;-69
2022/05/02 00:41:10;;;;;;;5.67;4.77;;;10.40;99.90;;;;;;5054918;28;20487;-69
2022/05/02 00:43:59;;;;;;;5.17;4.67;;;10.40;99.90;;;;;;5052633;28;20540;-70
2022/05/02 00:46:48;;;;;;;4.53;4.20;;;10.40;99.90;;;;;;5054740;28;20539;-71
2022/05/02 00:49:37;;;;;;;4.90;4.43;;;10.30;99.90;;;;;;5052790;28;21005;-71
2022/05/02 00:52:25;;;;;;;4.83;4.33;;;10.20;99.90;;;;;;5053669;28;20446;-71
2022/05/02 00:55:13;;;;;;;4.87;4.47;;;10.10;99.90;;;;;;5053943;28;20970;-71
2022/05/02 00:58:03;;;;;;;5.40;4.90;;;10.10;99.90;;;;;;5051002;28;20466;-72
2022/05/02 01:00:53;;;;;;;5.23;4.20;;;10.00;99.90;;;;;;5056702;28;21029;-71
2022/05/02 01:03:46;;;;;;;4.90;4.40;;;10.00;99.90;;;;;;5051765;28;20485;-72
2022/05/02 01:09:43;;;;;;;5.60;5.03;;;9.80;99.90;;;;;;5054491;28;21273;-72
2022/05/02 01:12:31;;;;;;;5.17;4.77;;;9.80;99.90;;;;;;5057386;28;20608;-71
2022/05/02 01:15:19;;;;;;;5.20;4.23;;;9.80;99.90;;;;;;5057181;28;20470;-71
2022/05/02 01:18:08;;;;;;;4.93;4.47;;;9.70;99.90;;;;;;5060496;28;20575;-71
2022/05/02 01:20:58;;;;;;;4.43;4.13;;;9.70;99.90;;;;;;5057739;28;20532;-72
2022/05/02 01:23:48;;;;;;;4.70;4.30;;;9.70;99.90;;;;;;5056692;28;20482;-72
2022/05/02 01:26:38;;;;;;;5.17;4.43;;;9.60;99.90;;;;;;5058637;28;20561;-71
2022/05/02 01:29:26;;;;;;;5.20;4.80;;;9.50;99.90;;;;;;5056982;28;20516;-70
2022/05/02 01:32:15;;;;;;;4.97;4.57;;;9.50;99.90;;;;;;5057748;28;20546;-72
2022/05/02 01:35:04;;;;;;;5.67;5.17;;;9.50;99.90;;;;;;5059731;28;20594;-72
2022/05/02 01:37:53;;;;;;;6.47;5.87;;;9.40;99.90;;;;;;5059161;28;20555;-72
2022/05/02 01:40:42;;;;;;;4.30;4.00;;;9.30;99.90;;;;;;5059790;28;20947;-72
2022/05/02 01:43:31;;;;;;;6.53;4.67;;;9.30;99.90;;;;;;5053835;28;20526;-72
2022/05/02 01:46:19;;;;;;;5.00;4.60;;;9.20;99.90;;;;;;5054130;28;22591;-71
2022/05/02 01:49:07;;;;;;;4.90;4.50;;;9.20;99.90;;;;;;5059931;28;20485;-71
2022/05/02 01:51:57;;;;;;;5.40;4.50;;;9.20;99.90;;;;;;5055802;28;20595;-72
2022/05/02 01:54:47;;;;;;;4.67;4.33;;;9.10;99.90;;;;;;5055232;28;20712;-72
2022/05/02 01:57:35;;;;;;;5.63;5.13;;;9.20;99.90;;;;;;5054426;28;20497;-72
2022/05/02 02:00:24;;;;;;;6.83;4.80;;;9.10;99.90;;;;;;5045830;28;20568;-74
2022/05/02 02:03:12;;;;;;;5.10;4.60;;;9.10;99.90;;;;;;5058811;28;20479;-72
2022/05/02 02:06:00;;;;;;;4.70;4.30;;;9.10;99.90;;;;;;5060739;28;20977;-72
2022/05/02 02:08:50;;;;;;;5.50;5.00;;;9.10;99.90;;;;;;5056912;28;20484;-72
2022/05/02 02:11:39;;;;;;;5.30;4.80;;;9.00;99.90;;;;;;5059009;28;20481;-72
2022/05/02 02:14:27;;;;;;;5.57;5.17;;;9.00;99.90;;;;;;5055332;28;21100;-71
2022/05/02 02:17:15;;;;;;;5.03;4.53;;;9.00;99.90;;;;;;5058943;28;20633;-72
2022/05/02 02:20:04;;;;;;;5.57;4.80;;;8.90;99.90;;;;;;5060041;28;20447;-72
2022/05/02 02:22:53;;;;;;;5.33;4.83;;;8.90;99.90;;;;;;5055679;28;20551;-72
2022/05/02 02:25:41;;;;;;;4.90;4.40;;;8.90;99.90;;;;;;5053589;28;20986;-72
2022/05/02 02:28:31;;;;;;;4.70;4.30;;;8.90;99.90;;;;;;5057235;28;20844;-71
2022/05/02 02:31:19;;;;;;;5.10;4.67;;;8.80;99.90;;;;;;5060086;28;20889;-71
2022/05/02 02:34:07;;;;;;;4.73;4.30;;;8.70;99.90;;;;;;5057758;28;20478;-72
2022/05/02 02:36:55;;;;;;;4.97;4.57;;;8.80;99.90;;;;;;5058525;28;20496;-72
2022/05/02 02:39:44;;;;;;;6.10;5.50;;;8.80;99.90;;;;;;5056954;28;20549;-71
2022/05/02 02:42:32;;;;;;;4.97;4.57;;;8.80;99.90;;;;;;5058554;28;20648;-72
2022/05/02 02:45:22;;;;;;;4.93;4.53;;;8.70;99.90;;;;;;5055877;28;20562;-72
2022/05/02 02:48:10;;;;;;;4.87;4.47;;;8.70;99.90;;;;;;5057082;28;20474;-72
2022/05/02 02:51:01;;;;;;;6.13;5.37;;;8.70;99.90;;;;;;5059039;28;20568;-71
2022/05/02 02:53:51;;;;;;;5.37;4.90;;;8.60;99.90;;;;;;5058642;28;20832;-72
2022/05/02 02:56:39;;;;;;;5.20;4.70;;;8.50;99.90;;;;;;5057460;28;22209;-72
2022/05/02 02:59:27;;;;;;;6.60;5.00;;;8.50;99.90;;;;;;5056305;28;20477;-72
2022/05/02 03:02:17;;;;;;;5.27;4.80;;;8.40;99.90;;;;;;5065136;28;20569;-72
2022/05/02 03:08:12;;;;;;;5.50;5.00;;;8.40;99.90;;;;;;5058284;28;20530;-73
2022/05/02 03:11:01;;;;;;;5.40;4.90;;;8.30;99.90;;;;;;5057197;28;20946;-72
2022/05/02 03:13:49;;;;;;;6.03;5.30;;;8.30;99.90;;;;;;5053040;28;20568;-72
2022/05/02 03:16:37;;;;;;;5.23;4.73;;;8.30;99.90;;;;;;5055680;28;20559;-72
2022/05/02 03:19:26;;;;;;;5.17;4.67;;;8.20;99.90;;;;;;5056973;28;20474;-72
2022/05/02 03:22:15;;;;;;;5.73;5.20;;;8.20;99.90;;;;;;5054592;28;20899;-73
2022/05/02 03:25:03;;;;;;;6.47;5.10;;;8.10;99.90;;;;;;5056776;28;20486;-72
2022/05/02 03:27:55;;;;;;;5.73;4.63;;;8.00;99.90;;;;;;5051669;28;20966;-72
2022/05/02 03:30:43;;;;;;;5.37;4.97;;;8.00;99.90;;;;;;5051941;28;20505;-72
2022/05/02 03:33:31;;;;;;;5.90;4.87;;;8.00;99.90;;;;;;5052774;28;20576;-72
2022/05/02 03:36:20;;;;;;;9.47;5.50;;;8.00;99.90;;;;;;5056488;28;20493;-72
2022/05/02 03:39:09;;;;;;;5.80;4.93;;;7.90;99.90;;;;;;5056268;28;20528;-72
2022/05/02 03:41:57;;;;;;;5.10;4.60;;;7.90;99.90;;;;;;5057289;28;20540;-72
2022/05/02 03:44:45;;;;;;;5.23;4.80;;;7.90;99.90;;;;;;5056666;28;20478;-72
2022/05/02 03:47:35;;;;;;;5.30;4.90;;;7.80;99.90;;;;;;5054473;28;20523;-72
2022/05/02 03:50:23;;;;;;;5.00;4.60;;;7.80;99.90;;;;;;5056299;28;20827;-72
2022/05/02 03:53:18;;;;;;;5.60;5.10;;;7.70;99.90;;;;;;5055959;28;20478;-72
2022/05/02 03:56:06;;;;;;;5.70;5.20;;;7.60;99.90;;;;;;5055476;28;20826;-72
2022/05/02 03:58:54;;;;;;;6.63;6.03;;;7.60;99.90;;;;;;5056331;28;20516;-72
2022/05/02 04:01:43;;;;;;;5.53;5.03;;;7.60;99.90;;;;;;5055573;28;20510;-73
2022/05/02 04:04:31;;;;;;;6.10;5.50;;;7.60;99.90;;;;;;5054990;28;20474;-72
2022/05/02 04:07:19;;;;;;;6.33;5.47;;;7.60;99.90;;;;;;5045125;28;20541;-72
2022/05/02 04:10:09;;;;;;;7.50;5.20;;;7.60;99.90;;;;;;5054355;28;20925;-72
2022/05/02 04:12:57;;;;;;;6.07;5.47;;;7.50;99.90;;;;;;5057333;28;20553;-71
2022/05/02 04:15:45;;;;;;;6.03;5.53;;;7.50;99.90;;;;;;5055636;28;20474;-72
2022/05/02 04:18:34;;;;;;;6.10;5.60;;;7.50;99.90;;;;;;5055945;28;20471;-72
2022/05/02 04:21:22;;;;;;;6.50;5.90;;;7.50;99.90;;;;;;5056713;28;20487;-72
2022/05/02 04:24:10;;;;;;;6.40;5.80;;;7.50;99.90;;;;;;5054495;28;20610;-72
2022/05/02 04:27:00;;;;;;;5.93;5.40;;;7.50;99.90;;;;;;5053717;28;20493;-72
2022/05/02 04:29:48;;;;;;;5.10;4.60;;;7.40;99.90;;;;;;5056848;28;20832;-72
2022/05/02 04:32:36;;;;;;;6.63;6.03;;;7.40;99.90;;;;;;5054532;28;20486;-72
2022/05/02 04:35:24;;;;;;;5.90;5.03;;;7.40;99.90;;;;;;5052743;28;20560;-74
2022/05/02 04:38:12;;;;;;;5.80;5.20;;;7.40;99.90;;;;;;5056639;28;20469;-74
2022/05/02 04:41:01;;;;;;;7.13;5.47;;;7.40;99.90;;;;;;5049396;28;20916;-74
2022/05/02 04:43:52;;;;;;;6.30;5.80;;;7.30;99.90;;;;;;5053415;28;20462;-72
2022/05/02 04:46:41;;;;;;;6.00;5.40;;;7.40;99.90;;;;;;5055336;28;20527;-74
2022/05/02 04:49:30;;;;;;;6.57;5.37;;;7.40;99.90;;;;;;5054457;28;20528;-73
2022/05/02 04:52:18;;;;;;;5.80;5.30;;;7.40;99.90;;;;;;5057663;28;20989;-74
2022/05/02 04:55:07;;;;;;;6.73;6.10;;;7.40;99.90;;;;;;5058644;28;20478;-74
2022/05/02 04:57:55;;;;;;;6.57;5.97;;;7.40;99.90;;;;;;5058067;28;20480;-78
2022/05/02 05:00:45;;;;;;;7.30;6.10;;;7.30;99.90;;;;;;5057734;28;20973;-73
2022/05/02 05:03:34;;;;;;;5.60;5.10;;;7.30;99.90;;;;;;5058344;28;20563;-74
2022/05/02 05:06:23;;;;;;;6.80;6.20;;;7.40;99.90;;;;;;5059082;28;20968;-73
2022/05/02 05:09:11;;;;;;;8.40;6.50;;;7.40;99.90;;;;;;5056129;28;21016;-72
2022/05/02 05:12:11;;;;;;;7.07;6.17;;;7.40;99.90;;;;;;5061990;28;20554;-73
2022/05/02 05:18:34;;;;;;;7.43;6.63;;;7.50;99.90;;;;;;5061850;28;20466;-71
2022/05/02 05:21:33;;;;;;;6.70;6.10;;;7.50;99.90;;;;;;5053934;28;20595;-73
2022/05/02 05:24:49;;;;;;;6.57;5.90;;;7.50;99.90;;;;;;5052254;28;20644;-73
2022/05/02 05:28:04;;;;;;;7.40;6.70;;;7.60;99.90;;;;;;5049638;28;20473;-72
2022/05/02 05:31:05;;;;;;;7.87;7.07;;;7.60;99.90;;;;;;5038635;28;21039;-72
2022/05/02 05:34:06;;;;;;;8.53;6.70;;;7.70;99.90;;;;;;5052133;28;20469;-71
2022/05/02 05:37:23;;;;;;;7.60;6.90;;;7.70;99.90;;;;;;5051577;28;20477;-72
2022/05/02 05:40:20;;;;;;;7.17;6.47;;;7.70;99.90;;;;;;5049124;28;20453;-72
2022/05/02 05:43:24;;;;;;;11.53;6.80;;;7.80;99.90;;;;;;5050326;28;20553;-72
2022/05/02 05:46:38;;;;;;;7.10;6.50;;;7.90;99.90;;;;;;5052751;28;20564;-72
2022/05/02 05:49:37;;;;;;;6.80;6.20;;;7.90;99.90;;;;;;5048371;28;20571;-72
2022/05/02 05:52:40;;;;;;;7.30;6.70;;;8.00;99.90;;;;;;5053616;28;20561;-72
2022/05/02 05:55:36;;;;;;;8.83;7.07;;;8.00;99.90;;;;;;5043099;28;20517;-73
2022/05/02 05:58:32;;;;;;;7.47;6.67;;;8.10;99.90;;;;;;5054014;28;20486;-72
2022/05/02 06:01:30;;;;;;;8.67;7.33;;;8.20;99.90;;;;;;5049852;28;20461;-72
2022/05/02 06:04:20;;;;;;;11.40;7.40;;;8.20;99.90;;;;;;5054039;28;20477;-72
2022/05/02 06:07:12;;;;;;;8.30;7.50;;;8.30;99.90;;;;;;5051825;28;20465;-73
2022/05/02 06:10:03;;;;;;;8.70;7.47;;;8.30;99.90;;;;;;5049502;28;20556;-72
2022/05/02 06:12:53;;;;;;;7.73;7.03;;;8.40;99.90;;;;;;5057788;28;20471;-70
2022/05/02 06:18:55;;;;;;;7.27;6.57;;;8.50;99.90;;;;;;5055044;28;20477;-69
2022/05/02 06:21:44;;;;;;;11.60;7.83;;;8.70;99.90;;;;;;5054236;28;20800;-70
2022/05/02 06:24:38;;;;;;;11.87;7.23;;;8.70;99.90;;;;;;5051615;28;20543;-71
2022/05/02 06:27:26;;;;;;;12.53;6.83;;;8.80;99.90;;;;;;5043111;28;20974;-70
2022/05/02 06:30:16;;;;;;;8.57;6.87;;;8.90;99.90;;;;;;5043322;28;23846;-73
2022/05/02 06:33:10;;;;;;;9.60;6.30;;;9.00;99.90;;;;;;5051656;28;20591;-72
2022/05/02 06:36:35;;;;;;;8.93;5.80;;;9.10;99.90;;;;;;5055311;28;20482;-73
2022/05/02 06:39:52;;;;;;;8.20;5.63;;;9.20;99.90;;;;;;5054892;28;20467;-72
2022/05/02 06:42:51;;;;;;;8.10;5.03;;;9.30;99.90;;;;;;5051874;28;20454;-71
2022/05/02 06:45:49;;;;;;;5.20;4.03;;;9.40;99.90;;;;;;5050238;28;20484;-75
2022/05/02 06:48:42;;;;;;;6.20;4.00;;;9.50;99.90;;;;;;5054419;28;20485;-73
2022/05/02 06:51:36;;;;;;;4.93;3.97;;;9.60;99.90;;;;;;5057010;28;21096;-73
2022/05/02 06:54:53;;;;;;;4.70;4.10;;;9.70;99.90;;;;;;5052783;28;20497;-72
2022/05/02 06:57:53;;;;;;;4.53;3.20;;;9.80;99.90;;;;;;5055953;28;20470;-72
2022/05/02 07:00:56;;;;;;;3.90;3.40;;;9.90;99.90;;;;;;5051502;28;20820;-72
2022/05/02 07:04:05;;;;;;;4.33;3.93;;;10.00;99.90;;;;;;5056082;28;20562;-73
2022/05/02 07:07:14;;;;;;;5.37;4.40;;;10.10;99.90;;;;;;5054927;28;20445;-74
2022/05/02 07:10:06;;;;;;;9.07;3.50;;;10.20;99.90;;;;;;5050805;28;20604;-72
2022/05/02 07:13:11;;;;;;;4.70;4.13;;;10.30;99.90;;;;;;5058837;28;20489;-73
2022/05/02 07:16:06;;;;;;;3.90;3.37;;;10.30;99.90;;;;;;5055840;28;20523;-73
2022/05/02 07:19:34;;;;;;;2.90;2.50;;;10.40;99.90;;;;;;5052510;28;20469;-73
2022/05/02 07:22:34;;;;;;;3.10;2.77;;;10.50;99.90;;;;;;5029955;28;20503;-74
2022/05/02 07:25:24;;;;;;;3.10;2.90;;;10.60;99.90;;;;;;5055342;28;21095;-73
2022/05/02 07:28:25;;;;;;;6.57;3.10;;;10.70;99.90;;;;;;5050741;28;20610;-74
2022/05/02 07:31:14;;;;;;;5.53;3.33;;;10.80;99.90;;;;;;5050963;28;20447;-73
2022/05/02 07:34:03;;;;;;;4.17;3.13;;;10.90;99.90;;;;;;5052876;28;24297;-73
2022/05/02 07:36:52;;;;;;;3.43;3.13;;;10.90;99.90;;;;;;5049276;28;20454;-73
2022/05/02 07:39:42;;;;;;;3.30;3.00;;;11.00;99.90;;;;;;5051451;28;20977;-73
2022/05/02 07:42:32;;;;;;;3.60;3.13;;;11.10;99.90;;;;;;5055193;28;20500;-73
2022/05/02 07:45:25;;;;;;;3.50;3.20;;;11.20;99.90;;;;;;5054565;28;20828;-73
2022/05/02 07:48:14;;;;;;;3.50;3.20;;;11.20;99.90;;;;;;5049812;28;20485;-73
2022/05/02 07:51:04;;;;;;;3.97;3.27;;;11.30;99.90;;;;;;5054416;28;20480;-73
2022/05/02 07:53:54;;;;;;;4.07;3.67;;;11.30;99.90;;;;;;5051625;28;20505;-73
2022/05/02 07:56:42;;;;;;;4.43;4.03;;;11.40;99.90;;;;;;5055423;28;20457;-75
2022/05/02 07:59:36;;;;;;;3.63;3.33;;;11.50;99.90;;;;;;5055796;28;20473;-74
2022/05/02 08:02:24;;;;;;;3.90;3.60;;;11.60;99.90;;;;;;5048981;28;20609;-73
2022/05/02 08:05:12;;;;;;;3.33;3.03;;;11.60;99.90;;;;;;5054477;28;20686;-73
2022/05/02 08:08:13;;;;;;;3.40;3.10;;;11.70;99.90;;;;;;5053156;28;20576;-73
2022/05/02 08:11:08;;;;;;;4.03;3.73;;;11.70;99.90;;;;;;5052623;28;20534;-73
2022/05/02 08:14:07;;;;;;;4.37;4.03;;;11.90;99.90;;;;;;5050025;28;20988;-73
2022/05/02 08:17:03;;;;;;;4.80;4.17;;;11.90;99.90;;;;;;5051016;28;20620;-73
2022/05/02 08:19:59;;;;;;;4.63;3.60;;;12.00;99.90;;;;;;5056293;28;20460;-72
2022/05/02 08:29:22;;;;;;;4.27;3.87;;;12.20;99.90;;;;;;5050995;28;20481;-72
2022/05/02 08:32:22;;;;;;;5.63;3.70;;;12.40;99.90;;;;;;5052906;28;20492;-73
2022/05/02 08:35:14;;;;;;;4.57;4.17;;;12.40;99.90;;;;;;5052612;28;20528;-73
2022/05/02 08:38:37;;;;;;;6.13;4.90;;;12.50;99.90;;;;;;5046704;28;20477;-74
2022/05/02 08:42:11;;;;;;;4.40;4.10;;;12.50;99.90;;;;;;5052536;28;20500;-72
2022/05/02 08:45:27;;;;;;;5.43;4.93;;;12.60;99.90;;;;;;5053135;28;20481;-75
2022/05/02 08:52:43;;;;;;;4.97;4.53;;;12.70;99.90;;;;;;5049828;28;20469;-74
2022/05/02 08:55:56;;;;;;;6.40;4.70;;;12.70;99.90;;;;;;5046783;28;20823;-74
2022/05/02 08:59:34;;;;;;;5.77;5.27;;;12.80;99.90;;;;;;5053653;28;20470;-73
2022/05/02 09:03:06;;;;;;;5.63;5.13;;;12.80;99.90;;;;;;5047930;28;20873;-74
2022/05/02 09:06:51;;;;;;;5.40;4.90;;;12.90;99.90;;;;;;5046230;28;20529;-74
2022/05/02 09:09:59;;;;;;;6.00;5.50;;;12.90;99.90;;;;;;5042893;28;21287;-74
2022/05/02 09:13:24;;;;;;;7.30;5.60;;;13.10;99.90;;;;;;5051910;28;20477;-75
2022/05/02 09:16:53;;;;;;;8.50;7.70;;;13.30;99.90;;;;;;5051828;28;20988;-75
2022/05/02 09:20:23;;;;;;;6.00;5.50;;;13.40;99.90;;;;;;5053613;28;20456;-73
2022/05/02 09:24:06;;;;;;;5.97;5.37;;;13.40;99.90;;;;;;5050146;28;20614;-72
2022/05/02 09:27:21;;;;;;;6.50;5.77;;;13.40;99.90;;;;;;5048395;28;20840;-73
2022/05/02 09:30:50;;;;;;;7.93;7.13;;;13.40;99.90;;;;;;5047259;28;20487;-73
2022/05/02 09:33:44;;;;;;;7.27;6.60;;;13.50;99.90;;;;;;5052229;28;20474;-73
2022/05/02 09:36:43;;;;;;;10.57;7.00;;;13.60;99.90;;;;;;5055243;28;20547;-73
2022/05/02 09:39:44;;;;;;;9.07;6.50;;;13.70;99.90;;;;;;5049162;28;21018;-73
2022/05/02 09:42:51;;;;;;;6.73;6.13;;;13.80;99.90;;;;;;5055972;28;20929;-74
2022/05/02 09:52:16;;;;;;;6.37;5.70;;;14.00;99.90;;;;;;5050873;28;20617;-75
2022/05/02 09:58:33;;;;;;;7.37;6.63;;;14.20;99.90;;;;;;5055594;28;20540;-74
2022/05/02 10:01:23;;;;;;;7.30;6.60;;;14.30;99.90;;;;;;5052102;28;20449;-71
2022/05/02 10:04:31;;;;;;;8.67;7.87;;;14.40;99.90;;;;;;5049471;28;20469;-71
2022/05/02 10:07:25;;;;;;;7.67;7.00;;;14.40;99.90;;;;;;5053368;28;20453;-71
2022/05/02 10:10:24;;;;;;;7.50;6.80;;;14.50;99.90;;;;;;5054108;28;20493;-71
2022/05/02 10:13:24;;;;;;;7.20;6.57;;;14.50;99.90;;;;;;5046106;28;20607;-71
2022/05/02 10:16:25;;;;;;;6.87;6.23;;;14.60;99.90;;;;;;5054871;28;20449;-71
2022/05/02 10:19:29;;;;;;;6.37;5.80;;;14.70;99.90;;;;;;5054716;28;21072;-71
2022/05/02 10:22:29;;;;;;;7.43;6.77;;;14.80;99.90;;;;;;5054212;28;20543;-71
2022/05/02 10:25:21;;;;;;;6.73;6.23;;;14.90;99.90;;;;;;5054564;28;20538;-70
2022/05/02 10:28:27;;;;;;;7.17;6.37;;;15.00;99.90;;;;;;5051844;28;20901;-71
2022/05/02 10:31:20;;;;;;;6.37;5.87;;;15.10;99.90;;;;;;5052575;28;20450;-70
2022/05/02 10:34:13;;;;;;;6.40;5.90;;;15.20;99.90;;;;;;5051207;28;20809;-71
2022/05/02 10:37:06;;;;;;;5.70;5.10;;;15.20;99.90;;;;;;5048010;28;21009;-71
2022/05/02 10:40:01;;;;;;;6.10;5.60;;;15.30;99.90;;;;;;5051078;28;20549;-71
2022/05/02 10:42:52;;;;;;;7.50;6.90;;;15.30;99.90;;;;;;5051928;28;20620;-71
2022/05/02 10:45:42;;;;;;;6.90;6.30;;;15.40;99.90;;;;;;5051002;28;20551;-71
2022/05/02 10:48:54;;;;;;;6.17;5.67;;;15.50;99.90;;;;;;5054190;28;20489;-71
2022/05/02 10:51:52;;;;;;;5.90;5.43;;;15.60;99.90;;;;;;5056452;28;21048;-70
2022/05/02 10:54:46;;;;;;;7.97;7.07;;;15.70;99.90;;;;;;5061761;28;20501;-71
2022/05/02 10:57:39;;;;;;;9.30;8.30;;;15.80;99.90;;;;;;5065788;28;20470;-73
2022/05/02 11:00:28;;;;;;;8.10;7.40;;;15.90;99.90;;;;;;5065920;28;20458;-70
2022/05/02 11:03:29;;;;;;;8.77;7.97;;;16.10;99.90;;;;;;5061603;28;20872;-71
2022/05/02 11:06:38;;;;;;;6.93;6.33;;;16.10;99.90;;;;;;5050102;28;21008;-73
2022/05/02 11:09:36;;;;;;;7.23;6.63;;;16.10;99.90;;;;;;5048181;28;20556;-71
2022/05/02 11:12:29;;;;;;;8.07;7.30;;;16.20;99.90;;;;;;5052703;28;20988;-71
2022/05/02 11:15:19;;;;;;;8.10;7.40;;;16.30;99.90;;;;;;5042180;28;20937;-70
2022/05/02 11:20:41;;;;;;;7.03;6.33;;;16.30;99.90;;;;;;5045165;28;21020;-73
2022/05/02 11:21:40;;;;;;;7.60;6.90;;;16.30;99.90;;;;;;5044900;28;20618;-71
2022/05/02 11:24:39;;;;;;;7.90;6.80;;;16.40;99.90;;;;;;5039454;28;20615;-73
2022/05/02 11:27:39;;;;;;;6.33;5.70;;;16.50;99.90;;;;;;5042190;28;20534;-74
2022/05/02 11:30:28;;;;;;;7.87;6.80;;;16.60;99.90;;;;;;5038542;28;20477;-74
2022/05/02 11:33:24;;;;;;;7.73;6.90;;;16.70;99.90;;;;;;5048695;28;20501;-73
2022/05/02 11:36:13;;;;;;;6.57;5.97;;;16.90;99.90;;;;;;5040281;28;20462;-72
2022/05/02 11:39:05;;;;;;;7.47;6.67;;;16.90;99.90;;;;;;5043038;28;20473;-74
2022/05/02 11:41:59;;;;;;;7.87;7.17;;;16.90;99.90;;;;;;5047681;28;22382;-73
2022/05/02 11:44:51;;;;;;;7.00;6.40;;;17.00;99.90;;;;;;5046103;28;20970;-74
2022/05/02 11:48:04;;;;;;;7.33;6.73;;;17.00;99.90;;;;;;5049824;28;20946;-75
2022/05/02 11:50:56;;;;;;;6.90;6.30;;;17.20;99.90;;;;;;5048295;28;20572;-73
2022/05/02 11:53:48;;;;;;;7.90;7.20;;;17.40;99.90;;;;;;5050325;28;20623;-73
2022/05/02 11:56:49;;;;;;;6.57;5.97;;;17.50;99.90;;;;;;5051936;28;20512;-73
2022/05/02 11:59:47;;;;;;;6.57;5.97;;;17.50;99.90;;;;;;5054160;28;20467;-73
2022/05/02 12:02:55;;;;;;;8.60;6.80;;;17.70;99.90;;;;;;5047289;28;20501;-74
2022/05/02 12:05:44;;;;;;;6.73;6.13;;;17.80;99.90;;;;;;5045177;28;20477;-73
2022/05/02 12:08:35;;;;;;;6.47;5.90;;;17.90;99.90;;;;;;5047570;28;21081;-73
2022/05/02 12:11:24;;;;;;;8.17;7.50;;;17.90;99.90;;;;;;5049292;28;20622;-73
2022/05/02 12:14:20;;;;;;;8.97;6.80;;;18.00;99.90;;;;;;5055422;28;20534;-73
2022/05/02 12:17:11;;;;;;;7.57;6.87;;;18.00;99.90;;;;;;5048957;28;20460;-74
2022/05/02 12:19:59;;;;;;;8.10;7.30;;;18.00;99.90;;;;;;5045755;28;21046;-74
2022/05/02 12:22:53;;;;;;;7.43;6.83;;;18.00;99.90;;;;;;5048852;28;20632;-76
2022/05/02 12:25:49;;;;;;;7.30;6.70;;;18.00;99.90;;;;;;5050397;28;20573;-73
2022/05/02 12:28:41;;;;;;;6.70;6.10;;;17.90;99.90;;;;;;5051190;28;20525;-74
2022/05/02 12:31:34;;;;;;;6.47;5.97;;;17.90;99.90;;;;;;5052814;28;20574;-74
2022/05/02 12:34:24;;;;;;;6.80;6.30;;;17.70;99.90;;;;;;5052972;28;20557;-74
2022/05/02 12:37:20;;;;;;;6.77;6.17;;;17.70;99.90;;;;;;5053514;28;20539;-76
2022/05/02 12:40:13;;;;;;;6.60;6.10;;;17.90;99.90;;;;;;5056485;28;21087;-74
2022/05/02 12:43:10;;;;;;;6.80;6.23;;;18.10;99.90;;;;;;5047383;28;20556;-72
2022/05/02 12:46:08;;;;;;;7.70;7.00;;;18.10;99.90;;;;;;5047312;28;20477;-75
2022/05/02 12:49:04;;;;;;;10.83;6.87;;;18.20;99.90;;;;;;5049644;28;20494;-75
2022/05/02 12:51:57;;;;;;;6.23;5.73;;;18.40;99.90;;;;;;5044857;28;20462;-74
2022/05/02 12:54:49;;;;;;;7.80;7.10;;;18.60;99.90;;;;;;5043150;28;20478;-75
2022/05/02 13:00:49;;;;;;;6.80;6.20;;;18.90;99.90;;;;;;5035916;28;20544;-77
2022/05/02 13:03:39;;;;;;;7.10;6.50;;;19.10;99.90;;;;;;5049036;28;20540;-75
2022/05/02 13:06:29;;;;;;;6.50;6.00;;;19.20;99.90;;;;;;5042947;28;20465;-75
2022/05/02 13:09:20;;;;;;;6.93;6.33;;;19.40;99.90;;;;;;5052057;28;20549;-75
2022/05/02 13:12:10;;;;;;;7.03;6.53;;;19.60;99.90;;;;;;5054166;28;20465;-74
2022/05/02 13:15:00;;;;;;;6.63;6.13;;;19.50;99.90;;;;;;5053095;28;21275;-73
2022/05/02 13:17:51;;;;;;;6.20;5.70;;;19.50;99.90;;;;;;5056337;28;20794;-75
2022/05/02 13:21:01;;;;;;;6.67;6.13;;;19.30;99.90;;;;;;5055245;28;20516;-74
2022/05/02 13:23:53;;;;;;;6.77;6.27;;;19.20;99.90;;;;;;5049217;28;20473;-75
2022/05/02 13:27:05;;;;;;;7.10;6.50;;;19.40;99.90;;;;;;5055265;28;20450;-75
2022/05/02 13:30:06;;;;;;;7.70;7.00;;;19.50;99.90;;;;;;5053351;28;20499;-74
2022/05/02 13:33:03;;;;;;;6.50;5.93;;;19.60;99.90;;;;;;5060898;28;20452;-75
2022/05/02 13:36:04;;;;;;;6.57;5.97;;;19.70;99.90;;;;;;5056310;28;20542;-75
2022/05/02 13:39:09;;;;;;;6.67;6.07;;;19.90;99.90;;;;;;5046972;28;20597;-75
2022/05/02 13:42:06;;;;;;;6.90;6.20;;;20.00;99.90;;;;;;5056370;28;20814;-75
2022/05/02 13:44:57;;;;;;;6.93;6.23;;;20.10;99.90;;;;;;5048766;28;20471;-75
2022/05/02 13:47:51;;;;;;;6.33;5.73;;;20.10;99.90;;;;;;5045518;28;22261;-76
2022/05/02 13:50:42;;;;;;;7.00;6.20;;;20.10;99.90;;;;;;5046390;28;20452;-75
2022/05/02 13:53:36;;;;;;;6.93;6.33;;;20.10;99.90;;;;;;5049553;28;20552;-74
2022/05/02 13:56:42;;;;;;;6.40;5.80;;;20.30;99.90;;;;;;5057708;28;20527;-76
2022/05/02 13:59:39;;;;;;;5.97;5.57;;;20.30;99.90;;;;;;5057369;28;20626;-74
2022/05/02 14:02:50;;;;;;;5.90;5.40;;;20.10;99.90;;;;;;5057828;28;20695;-75
2022/05/02 14:05:55;;;;;;;5.90;5.40;;;20.20;99.90;;;;;;5049830;28;20477;-74
2022/05/02 14:08:44;;;;;;;6.67;6.07;;;20.20;99.90;;;;;;5056476;28;20477;-74
2022/05/02 14:11:33;;;;;;;6.13;5.73;;;20.20;99.90;;;;;;5055381;28;20544;-75
2022/05/02 14:14:22;;;;;;;6.50;5.90;;;20.20;99.90;;;;;;5053615;28;20647;-75
2022/05/02 14:17:26;;;;;;;6.23;5.73;;;20.50;99.90;;;;;;5055529;28;20557;-76
2022/05/02 14:20:23;;;;;;;6.50;5.90;;;20.70;99.90;;;;;;5057002;28;20465;-75
2022/05/02 14:23:11;;;;;;;6.53;6.03;;;20.80;99.90;;;;;;5055509;28;20461;-75
2022/05/02 14:25:59;;;;;;;7.03;5.40;;;20.90;99.90;;;;;;5052309;28;20549;-74
2022/05/02 14:28:52;;;;;;;6.70;6.10;;;21.20;99.90;;;;;;5049624;28;20588;-75
2022/05/02 14:31:41;;;;;;;6.97;5.80;;;21.50;99.90;;;;;;5057528;28;20441;-74
2022/05/02 14:34:39;;;;;;;7.03;5.77;;;21.80;99.90;;;;;;5056372;28;20527;-74
2022/05/02 14:37:28;;;;;;;5.03;4.53;;;22.50;99.90;;;;;;5055164;28;20995;-75
2022/05/02 14:40:17;;;;;;;6.33;5.80;;;23.40;99.90;;;;;;5050743;28;20579;-74
2022/05/02 14:43:06;;;;;;;6.00;5.50;;;24.00;99.90;;;;;;5051001;28;20461;-74
2022/05/02 14:45:56;;;;;;;5.27;4.87;;;23.40;99.90;;;;;;5054297;28;20526;-74
2022/05/02 14:48:44;;;;;;;5.20;4.80;;;23.20;99.50;;;;;;5057814;28;20494;-76
2022/05/02 14:51:38;;;;;;;5.10;4.73;;;22.90;99.90;;;;;;5052706;28;20568;-74
2022/05/02 14:54:30;;;;;;;5.57;5.07;;;22.90;99.90;;;;;;5053238;28;20520;-74
2022/05/02 14:57:23;;;;;;;4.90;4.50;;;22.80;99.20;;;;;;5051310;28;20508;-75
2022/05/02 15:00:12;;;;;;;5.33;4.80;;;22.50;99.90;;;;;;5055541;28;20465;-72
2022/05/02 15:03:05;;;;;;;4.60;4.20;;;22.30;99.30;;;;;;5052489;28;20570;-72
2022/05/02 15:05:56;;;;;;;4.50;4.10;;;22.10;99.50;;;;;;5053167;28;21011;-73
2022/05/02 15:09:10;;;;;;;4.70;4.30;;;21.90;99.70;;;;;;5056291;28;20491;-72
2022/05/02 15:12:10;;;;;;;4.60;4.17;;;22.00;99.20;;;;;;5049880;28;21595;-73
2022/05/02 15:15:17;;;;;;;3.70;3.40;;;22.00;99.10;;;;;;5050983;28;20478;-72
2022/05/02 15:18:25;;;;;;;3.37;3.17;;;21.80;97.50;;;;;;5047180;28;20572;-72
2022/05/02 15:21:23;;;;;;;3.70;3.40;;;21.60;97.60;;;;;;5054200;28;20941;-72
2022/05/02 15:24:45;;;;;;;4.07;3.77;;;21.60;98.00;;;;;;5048518;28;20474;-73
2022/05/02 15:37:20;;;;;;;3.63;3.10;;;20.70;96.00;;;;;;5049997;28;20775;-73
2022/05/02 15:40:46;;;;;;;3.70;3.40;;;20.30;96.40;;;;;;5056195;28;20549;-72
2022/05/02 15:43:37;;;;;;;3.60;2.93;;;20.20;97.60;;;;;;5051564;28;20886;-72
2022/05/02 15:46:40;;;;;;;3.23;2.93;;;20.10;97.40;;;;;;5055202;28;20925;-73
2022/05/02 15:49:33;;;;;;;3.10;2.90;;;19.90;97.80;;;;;;5054424;28;21367;-72
2022/05/02 15:52:23;;;;;;;4.20;3.30;;;19.90;98.40;;;;;;5054596;28;20442;-73
2022/05/02 15:55:55;;;;;;;3.50;3.20;;;19.90;97.00;;;;;;5053918;28;20485;-73
2022/05/02 15:59:01;;;;;;;3.67;3.27;;;19.80;98.30;;;;;;5055026;28;20573;-73
2022/05/02 16:01:56;;;;;;;3.40;3.10;;;19.80;98.00;;;;;;5045659;28;21911;-72
2022/05/02 16:04:52;;;;;;;3.20;2.90;;;19.90;98.00;;;;;;5046154;28;20481;-71